sensor_id;sensor_type;location;lat;lon;timestamp;temperature;humidity
44729;DHT22;30457;53.590;9.922;2023-12-04T00:01:45;4.00;60.00
44729;DHT22;30457;53.590;9.922;2023-12-04T00:06:11;4.00;60.00
44729;DHT22;30457;53.590;9.922;2023-12-04T00:10:37;4.00;60.70
44729;DHT22;30457;53.590;9.922;2023-12-04T00:15:03;3.90;60.00
44729;DHT22;30457;53.590;9.922;2023-12-04T00:19:28;3.90;60.00
44729;DHT22;30457;53.590;9.922;2023-12-04T00:23:54;3.80;59.90
44729;DHT22;30457;53.590;9.922;2023-12-04T00:28:20;3.80;59.90
44729;DHT22;30457;53.590;9.922;2023-12-04T00:32:45;3.80;59.80
44729;DHT22;30457;53.590;9.922;2023-12-04T00:37:11;3.70;59.80
44729;DHT22;30457;53.590;9.922;2023-12-04T00:41:36;3.70;59.80
44729;DHT22;30457;53.590;9.922;2023-12-04T00:46:02;3.70;59.80
44729;DHT22;30457;53.590;9.922;2023-12-04T00:50:27;3.60;59.80
44729;DHT22;30457;53.590;9.922;2023-12-04T00:54:53;3.60;59.80
44729;DHT22;30457;53.590;9.922;2023-12-04T00:59:19;3.60;60.40
44729;DHT22;30457;53.590;9.922;2023-12-04T01:03:44;3.60;59.70
44729;DHT22;30457;53.590;9.922;2023-12-04T01:08:10;3.50;59.70
44729;DHT22;30457;53.590;9.922;2023-12-04T01:12:35;3.50;59.60
44729;DHT22;30457;53.590;9.922;2023-12-04T01:17:01;3.40;59.60
44729;DHT22;30457;53.590;9.922;2023-12-04T01:21:26;3.40;59.60
44729;DHT22;30457;53.590;9.922;2023-12-04T01:25:52;3.40;59.60
44729;DHT22;30457;53.590;9.922;2023-12-04T01:30:17;3.40;59.50
44729;DHT22;30457;53.590;9.922;2023-12-04T01:34:43;3.30;59.40
44729;DHT22;30457;53.590;9.922;2023-12-04T01:39:08;3.30;59.50
44729;DHT22;30457;53.590;9.922;2023-12-04T01:43:34;3.30;59.50
44729;DHT22;30457;53.590;9.922;2023-12-04T01:48:00;3.20;59.50
44729;DHT22;30457;53.590;9.922;2023-12-04T01:52:26;3.20;59.40
44729;DHT22;30457;53.590;9.922;2023-12-04T01:56:51;3.20;59.50
44729;DHT22;30457;53.590;9.922;2023-12-04T02:01:18;3.10;59.40
44729;DHT22;30457;53.590;9.922;2023-12-04T02:05:44;3.10;59.40
44729;DHT22;30457;53.590;9.922;2023-12-04T02:10:11;3.10;59.40
44729;DHT22;30457;53.590;9.922;2023-12-04T02:14:36;3.10;59.40
44729;DHT22;30457;53.590;9.922;2023-12-04T02:19:03;3.00;59.40
44729;DHT22;30457;53.590;9.922;2023-12-04T02:23:29;3.00;59.40
44729;DHT22;30457;53.590;9.922;2023-12-04T02:27:56;3.00;59.50
44729;DHT22;30457;53.590;9.922;2023-12-04T02:32:24;3.00;59.40
44729;DHT22;30457;53.590;9.922;2023-12-04T02:36:53;3.00;59.40
44729;DHT22;30457;53.590;9.922;2023-12-04T02:41:19;3.00;59.40
44729;DHT22;30457;53.590;9.922;2023-12-04T02:45:45;3.00;59.40
44729;DHT22;30457;53.590;9.922;2023-12-04T02:50:10;3.00;59.50
44729;DHT22;30457;53.590;9.922;2023-12-04T02:54:36;3.00;59.50
44729;DHT22;30457;53.590;9.922;2023-12-04T02:59:02;2.90;59.50
44729;DHT22;30457;53.590;9.922;2023-12-04T03:03:27;2.90;59.50
44729;DHT22;30457;53.590;9.922;2023-12-04T03:07:53;2.90;59.50
44729;DHT22;30457;53.590;9.922;2023-12-04T03:12:18;2.90;59.50
44729;DHT22;30457;53.590;9.922;2023-12-04T03:16:44;2.90;59.60
44729;DHT22;30457;53.590;9.922;2023-12-04T03:21:09;2.90;59.70
44729;DHT22;30457;53.590;9.922;2023-12-04T03:25:35;2.90;59.60
44729;DHT22;30457;53.590;9.922;2023-12-04T03:30:01;2.90;59.50
44729;DHT22;30457;53.590;9.922;2023-12-04T03:34:27;2.90;59.60
44729;DHT22;30457;53.590;9.922;2023-12-04T03:38:53;2.90;59.60
44729;DHT22;30457;53.590;9.922;2023-12-04T03:43:19;2.90;59.60
44729;DHT22;30457;53.590;9.922;2023-12-04T03:47:45;2.90;59.60
44729;DHT22;30457;53.590;9.922;2023-12-04T03:52:10;2.90;59.50
44729;DHT22;30457;53.590;9.922;2023-12-04T03:56:36;2.90;59.50
44729;DHT22;30457;53.590;9.922;2023-12-04T04:01:01;2.90;59.50
44729;DHT22;30457;53.590;9.922;2023-12-04T04:05:27;2.90;59.40
44729;DHT22;30457;53.590;9.922;2023-12-04T04:09:53;2.90;59.50
44729;DHT22;30457;53.590;9.922;2023-12-04T04:14:18;2.90;59.40
44729;DHT22;30457;53.590;9.922;2023-12-04T04:18:44;2.90;59.40
44729;DHT22;30457;53.590;9.922;2023-12-04T04:23:10;2.90;59.40
44729;DHT22;30457;53.590;9.922;2023-12-04T04:27:35;2.90;59.40
44729;DHT22;30457;53.590;9.922;2023-12-04T04:32:01;2.90;59.50
44729;DHT22;30457;53.590;9.922;2023-12-04T04:36:27;2.90;59.50
44729;DHT22;30457;53.590;9.922;2023-12-04T04:40:52;2.90;59.60
44729;DHT22;30457;53.590;9.922;2023-12-04T04:45:18;2.90;59.60
44729;DHT22;30457;53.590;9.922;2023-12-04T04:49:44;2.90;59.70
44729;DHT22;30457;53.590;9.922;2023-12-04T04:54:09;2.90;59.80
44729;DHT22;30457;53.590;9.922;2023-12-04T04:58:35;3.00;59.90
44729;DHT22;30457;53.590;9.922;2023-12-04T05:03:01;3.00;59.90
44729;DHT22;30457;53.590;9.922;2023-12-04T05:07:26;3.10;59.90
44729;DHT22;30457;53.590;9.922;2023-12-04T05:11:52;3.10;60.00
44729;DHT22;30457;53.590;9.922;2023-12-04T05:16:17;3.20;60.00
44729;DHT22;30457;53.590;9.922;2023-12-04T05:20:43;3.20;60.00
44729;DHT22;30457;53.590;9.922;2023-12-04T05:25:09;3.20;60.10
44729;DHT22;30457;53.590;9.922;2023-12-04T05:29:34;3.20;60.70
44729;DHT22;30457;53.590;9.922;2023-12-04T05:34:00;3.20;60.00
44729;DHT22;30457;53.590;9.922;2023-12-04T05:38:25;3.30;60.00
44729;DHT22;30457;53.590;9.922;2023-12-04T05:42:51;3.30;60.00
44729;DHT22;30457;53.590;9.922;2023-12-04T05:47:16;3.30;60.00
44729;DHT22;30457;53.590;9.922;2023-12-04T05:51:42;3.30;60.00
44729;DHT22;30457;53.590;9.922;2023-12-04T05:56:08;3.30;60.00
44729;DHT22;30457;53.590;9.922;2023-12-04T06:00:34;3.30;60.00
44729;DHT22;30457;53.590;9.922;2023-12-04T06:04:59;3.30;60.00
44729;DHT22;30457;53.590;9.922;2023-12-04T06:09:25;3.30;60.10
44729;DHT22;30457;53.590;9.922;2023-12-04T06:13:50;3.30;60.90
44729;DHT22;30457;53.590;9.922;2023-12-04T06:18:16;3.40;60.30
44729;DHT22;30457;53.590;9.922;2023-12-04T06:22:42;3.40;60.20
44729;DHT22;30457;53.590;9.922;2023-12-04T06:27:08;3.30;60.20
44729;DHT22;30457;53.590;9.922;2023-12-04T06:31:34;3.40;60.40
44729;DHT22;30457;53.590;9.922;2023-12-04T06:36:00;3.40;60.60
44729;DHT22;30457;53.590;9.922;2023-12-04T06:40:26;3.40;60.60
44729;DHT22;30457;53.590;9.922;2023-12-04T06:44:52;3.40;60.40
44729;DHT22;30457;53.590;9.922;2023-12-04T06:49:18;3.40;60.50
44729;DHT22;30457;53.590;9.922;2023-12-04T06:53:44;3.40;60.50
44729;DHT22;30457;53.590;9.922;2023-12-04T06:58:09;3.40;60.50
44729;DHT22;30457;53.590;9.922;2023-12-04T07:02:35;3.30;60.60
44729;DHT22;30457;53.590;9.922;2023-12-04T07:07:00;3.30;60.60
44729;DHT22;30457;53.590;9.922;2023-12-04T07:11:30;3.30;60.80
44729;DHT22;30457;53.590;9.922;2023-12-04T07:15:56;3.30;60.90
44729;DHT22;30457;53.590;9.922;2023-12-04T07:20:24;3.30;61.00
44729;DHT22;30457;53.590;9.922;2023-12-04T07:24:49;3.30;61.00
44729;DHT22;30457;53.590;9.922;2023-12-04T07:29:15;3.30;61.20
44729;DHT22;30457;53.590;9.922;2023-12-04T07:33:41;3.30;61.20
44729;DHT22;30457;53.590;9.922;2023-12-04T07:38:07;3.30;61.30
44729;DHT22;30457;53.590;9.922;2023-12-04T07:42:32;3.40;61.40
44729;DHT22;30457;53.590;9.922;2023-12-04T07:46:58;3.40;61.50
44729;DHT22;30457;53.590;9.922;2023-12-04T07:51:23;3.40;61.50
44729;DHT22;30457;53.590;9.922;2023-12-04T07:55:49;3.40;61.50
44729;DHT22;30457;53.590;9.922;2023-12-04T08:00:17;3.50;61.60
44729;DHT22;30457;53.590;9.922;2023-12-04T08:04:48;3.50;61.50
44729;DHT22;30457;53.590;9.922;2023-12-04T08:09:13;3.50;61.50
44729;DHT22;30457;53.590;9.922;2023-12-04T08:13:39;3.50;61.70
44729;DHT22;30457;53.590;9.922;2023-12-04T08:18:05;3.50;61.80
44729;DHT22;30457;53.590;9.922;2023-12-04T08:22:30;3.50;61.80
44729;DHT22;30457;53.590;9.922;2023-12-04T08:26:57;3.60;61.80
44729;DHT22;30457;53.590;9.922;2023-12-04T08:31:22;3.60;61.80
44729;DHT22;30457;53.590;9.922;2023-12-04T08:35:48;3.70;61.80
44729;DHT22;30457;53.590;9.922;2023-12-04T08:40:14;3.70;61.90
44729;DHT22;30457;53.590;9.922;2023-12-04T08:44:40;3.80;62.00
44729;DHT22;30457;53.590;9.922;2023-12-04T08:49:06;3.80;61.90
44729;DHT22;30457;53.590;9.922;2023-12-04T08:53:31;3.80;61.80
44729;DHT22;30457;53.590;9.922;2023-12-04T08:57:57;3.90;61.90
44729;DHT22;30457;53.590;9.922;2023-12-04T09:02:22;3.90;61.70
44729;DHT22;30457;53.590;9.922;2023-12-04T09:06:48;3.90;61.70
44729;DHT22;30457;53.590;9.922;2023-12-04T09:11:13;3.90;61.70
44729;DHT22;30457;53.590;9.922;2023-12-04T09:15:39;3.90;61.70
44729;DHT22;30457;53.590;9.922;2023-12-04T09:20:05;3.90;61.70
44729;DHT22;30457;53.590;9.922;2023-12-04T09:24:31;4.00;61.70
44729;DHT22;30457;53.590;9.922;2023-12-04T09:28:56;4.00;61.80
44729;DHT22;30457;53.590;9.922;2023-12-04T09:33:22;4.00;61.90
44729;DHT22;30457;53.590;9.922;2023-12-04T09:37:48;4.00;61.90
44729;DHT22;30457;53.590;9.922;2023-12-04T09:42:17;4.10;62.00
44729;DHT22;30457;53.590;9.922;2023-12-04T09:46:44;4.10;62.00
44729;DHT22;30457;53.590;9.922;2023-12-04T09:51:10;4.20;62.10
44729;DHT22;30457;53.590;9.922;2023-12-04T09:55:36;4.20;62.00
44729;DHT22;30457;53.590;9.922;2023-12-04T10:00:03;4.30;62.00
44729;DHT22;30457;53.590;9.922;2023-12-04T10:04:37;4.30;61.90
44729;DHT22;30457;53.590;9.922;2023-12-04T10:09:02;4.40;61.90
44729;DHT22;30457;53.590;9.922;2023-12-04T10:13:28;4.50;61.90
44729;DHT22;30457;53.590;9.922;2023-12-04T10:17:54;4.50;61.80
44729;DHT22;30457;53.590;9.922;2023-12-04T10:22:19;4.60;61.70
44729;DHT22;30457;53.590;9.922;2023-12-04T10:26:51;4.60;61.40
44729;DHT22;30457;53.590;9.922;2023-12-04T10:31:17;4.70;61.20
44729;DHT22;30457;53.590;9.922;2023-12-04T10:35:43;4.80;61.20
44729;DHT22;30457;53.590;9.922;2023-12-04T10:40:09;4.80;61.20
44729;DHT22;30457;53.590;9.922;2023-12-04T10:44:35;4.80;60.90
44729;DHT22;30457;53.590;9.922;2023-12-04T10:49:03;4.90;60.50
44729;DHT22;30457;53.590;9.922;2023-12-04T10:53:29;4.90;60.30
44729;DHT22;30457;53.590;9.922;2023-12-04T10:57:55;4.90;60.30
44729;DHT22;30457;53.590;9.922;2023-12-04T11:02:21;5.00;60.30
44729;DHT22;30457;53.590;9.922;2023-12-04T11:06:52;5.00;60.30
44729;DHT22;30457;53.590;9.922;2023-12-04T11:11:29;5.00;60.20
44729;DHT22;30457;53.590;9.922;2023-12-04T11:16:00;5.10;60.30
44729;DHT22;30457;53.590;9.922;2023-12-04T11:20:29;5.10;60.10
44729;DHT22;30457;53.590;9.922;2023-12-04T11:24:57;5.10;59.90
44729;DHT22;30457;53.590;9.922;2023-12-04T11:29:23;5.10;59.80
44729;DHT22;30457;53.590;9.922;2023-12-04T11:33:49;5.10;59.90
44729;DHT22;30457;53.590;9.922;2023-12-04T11:38:16;5.10;59.70
44729;DHT22;30457;53.590;9.922;2023-12-04T11:42:42;5.20;59.80
44729;DHT22;30457;53.590;9.922;2023-12-04T11:47:07;5.20;59.70
44729;DHT22;30457;53.590;9.922;2023-12-04T11:56:09;5.20;59.40
44729;DHT22;30457;53.590;9.922;2023-12-04T12:00:36;5.30;59.50
44729;DHT22;30457;53.590;9.922;2023-12-04T12:05:03;5.30;59.50
44729;DHT22;30457;53.590;9.922;2023-12-04T12:09:31;5.30;59.40
44729;DHT22;30457;53.590;9.922;2023-12-04T12:13:57;5.30;59.20
44729;DHT22;30457;53.590;9.922;2023-12-04T12:18:24;5.30;59.10
44729;DHT22;30457;53.590;9.922;2023-12-04T12:22:50;5.30;59.10
44729;DHT22;30457;53.590;9.922;2023-12-04T12:27:17;5.20;59.00
44729;DHT22;30457;53.590;9.922;2023-12-04T12:31:42;5.20;59.10
44729;DHT22;30457;53.590;9.922;2023-12-04T12:36:09;5.20;59.10
44729;DHT22;30457;53.590;9.922;2023-12-04T12:40:35;5.20;59.20
44729;DHT22;30457;53.590;9.922;2023-12-04T12:45:01;5.20;59.20
44729;DHT22;30457;53.590;9.922;2023-12-04T12:49:27;5.20;59.20
44729;DHT22;30457;53.590;9.922;2023-12-04T12:53:53;5.20;59.20
44729;DHT22;30457;53.590;9.922;2023-12-04T12:58:19;5.20;59.20
44729;DHT22;30457;53.590;9.922;2023-12-04T13:02:46;5.20;59.20
44729;DHT22;30457;53.590;9.922;2023-12-04T13:07:11;5.20;59.10
44729;DHT22;30457;53.590;9.922;2023-12-04T13:11:37;5.30;59.20
44729;DHT22;30457;53.590;9.922;2023-12-04T13:16:03;5.30;59.10
44729;DHT22;30457;53.590;9.922;2023-12-04T13:20:29;5.30;59.00
44729;DHT22;30457;53.590;9.922;2023-12-04T13:24:54;5.30;58.90
44729;DHT22;30457;53.590;9.922;2023-12-04T13:29:20;5.20;58.80
44729;DHT22;30457;53.590;9.922;2023-12-04T13:33:46;5.20;58.80
44729;DHT22;30457;53.590;9.922;2023-12-04T13:38:12;5.20;58.80
44729;DHT22;30457;53.590;9.922;2023-12-04T13:42:39;5.20;58.80
44729;DHT22;30457;53.590;9.922;2023-12-04T13:47:23;5.20;58.90
44729;DHT22;30457;53.590;9.922;2023-12-04T13:51:48;5.20;59.00
44729;DHT22;30457;53.590;9.922;2023-12-04T13:56:15;5.20;59.00
44729;DHT22;30457;53.590;9.922;2023-12-04T14:00:46;5.20;59.00
44729;DHT22;30457;53.590;9.922;2023-12-04T14:05:12;5.20;59.00
44729;DHT22;30457;53.590;9.922;2023-12-04T14:09:41;5.20;58.90
44729;DHT22;30457;53.590;9.922;2023-12-04T14:14:06;5.20;59.00
44729;DHT22;30457;53.590;9.922;2023-12-04T14:18:33;5.20;58.90
44729;DHT22;30457;53.590;9.922;2023-12-04T14:22:59;5.20;58.90
44729;DHT22;30457;53.590;9.922;2023-12-04T14:27:25;5.20;58.90
44729;DHT22;30457;53.590;9.922;2023-12-04T14:31:50;5.20;59.00
44729;DHT22;30457;53.590;9.922;2023-12-04T14:36:16;5.20;59.00
44729;DHT22;30457;53.590;9.922;2023-12-04T14:40:42;5.20;59.00
44729;DHT22;30457;53.590;9.922;2023-12-04T14:45:07;5.10;58.90
44729;DHT22;30457;53.590;9.922;2023-12-04T14:49:33;5.10;59.00
44729;DHT22;30457;53.590;9.922;2023-12-04T14:53:58;5.00;59.00
44729;DHT22;30457;53.590;9.922;2023-12-04T14:58:46;5.00;59.10
44729;DHT22;30457;53.590;9.922;2023-12-04T15:03:43;4.90;59.10
44729;DHT22;30457;53.590;9.922;2023-12-04T15:08:41;4.90;59.20
44729;DHT22;30457;53.590;9.922;2023-12-04T15:13:25;4.80;59.20
44729;DHT22;30457;53.590;9.922;2023-12-04T15:18:10;4.80;59.30
44729;DHT22;30457;53.590;9.922;2023-12-04T15:22:54;4.80;59.30
44729;DHT22;30457;53.590;9.922;2023-12-04T15:27:21;4.80;59.40
44729;DHT22;30457;53.590;9.922;2023-12-04T15:31:47;4.70;59.30
44729;DHT22;30457;53.590;9.922;2023-12-04T15:36:12;4.70;59.40
44729;DHT22;30457;53.590;9.922;2023-12-04T15:40:38;4.80;59.40
44729;DHT22;30457;53.590;9.922;2023-12-04T15:45:04;4.70;59.40
44729;DHT22;30457;53.590;9.922;2023-12-04T15:49:30;4.60;59.40
44729;DHT22;30457;53.590;9.922;2023-12-04T15:53:56;4.70;59.50
44729;DHT22;30457;53.590;9.922;2023-12-04T15:58:21;4.70;59.50
44729;DHT22;30457;53.590;9.922;2023-12-04T16:02:47;4.70;59.50
44729;DHT22;30457;53.590;9.922;2023-12-04T16:07:13;4.70;59.50
44729;DHT22;30457;53.590;9.922;2023-12-04T16:11:39;4.70;59.50
44729;DHT22;30457;53.590;9.922;2023-12-04T16:16:05;4.60;59.30
44729;DHT22;30457;53.590;9.922;2023-12-04T16:20:31;4.70;59.40
44729;DHT22;30457;53.590;9.922;2023-12-04T16:24:56;4.60;59.30
44729;DHT22;30457;53.590;9.922;2023-12-04T16:29:22;4.70;59.30
44729;DHT22;30457;53.590;9.922;2023-12-04T16:33:50;4.70;59.20
44729;DHT22;30457;53.590;9.922;2023-12-04T16:38:16;4.60;59.10
44729;DHT22;30457;53.590;9.922;2023-12-04T16:42:41;4.60;59.10
44729;DHT22;30457;53.590;9.922;2023-12-04T16:47:07;4.60;59.00
44729;DHT22;30457;53.590;9.922;2023-12-04T16:51:32;4.60;59.00
44729;DHT22;30457;53.590;9.922;2023-12-04T16:55:59;4.60;58.90
44729;DHT22;30457;53.590;9.922;2023-12-04T17:00:25;4.50;58.90
44729;DHT22;30457;53.590;9.922;2023-12-04T17:04:51;4.50;58.80
44729;DHT22;30457;53.590;9.922;2023-12-04T17:09:16;4.50;58.90
44729;DHT22;30457;53.590;9.922;2023-12-04T17:13:42;4.50;59.00
44729;DHT22;30457;53.590;9.922;2023-12-04T17:18:07;4.40;59.00
44729;DHT22;30457;53.590;9.922;2023-12-04T17:22:33;4.40;58.90
44729;DHT22;30457;53.590;9.922;2023-12-04T17:26:59;4.40;59.00
44729;DHT22;30457;53.590;9.922;2023-12-04T17:31:24;4.40;58.90
44729;DHT22;30457;53.590;9.922;2023-12-04T17:35:50;4.40;58.80
44729;DHT22;30457;53.590;9.922;2023-12-04T17:40:15;4.40;58.90
44729;DHT22;30457;53.590;9.922;2023-12-04T17:44:41;4.40;58.80
44729;DHT22;30457;53.590;9.922;2023-12-04T17:49:08;4.30;58.70
44729;DHT22;30457;53.590;9.922;2023-12-04T17:53:34;4.30;58.70
44729;DHT22;30457;53.590;9.922;2023-12-04T17:58:01;4.30;58.70
44729;DHT22;30457;53.590;9.922;2023-12-04T18:02:27;4.30;58.70
44729;DHT22;30457;53.590;9.922;2023-12-04T18:06:52;4.30;58.70
44729;DHT22;30457;53.590;9.922;2023-12-04T18:11:18;4.30;58.80
44729;DHT22;30457;53.590;9.922;2023-12-04T18:15:43;4.40;58.80
44729;DHT22;30457;53.590;9.922;2023-12-04T18:20:13;4.30;58.70
44729;DHT22;30457;53.590;9.922;2023-12-04T18:24:39;4.40;58.70
44729;DHT22;30457;53.590;9.922;2023-12-04T18:29:06;4.40;58.70
44729;DHT22;30457;53.590;9.922;2023-12-04T18:33:33;4.40;58.60
44729;DHT22;30457;53.590;9.922;2023-12-04T18:38:12;4.40;58.50
44729;DHT22;30457;53.590;9.922;2023-12-04T18:42:39;4.40;58.30
44729;DHT22;30457;53.590;9.922;2023-12-04T18:47:08;4.40;58.40
44729;DHT22;30457;53.590;9.922;2023-12-04T18:51:35;4.40;58.30
44729;DHT22;30457;53.590;9.922;2023-12-04T18:56:01;4.40;58.30
44729;DHT22;30457;53.590;9.922;2023-12-04T19:00:28;4.40;58.20
44729;DHT22;30457;53.590;9.922;2023-12-04T19:04:54;4.40;58.20
44729;DHT22;30457;53.590;9.922;2023-12-04T19:09:19;4.40;58.20
44729;DHT22;30457;53.590;9.922;2023-12-04T19:13:45;4.40;58.20
44729;DHT22;30457;53.590;9.922;2023-12-04T19:18:10;4.40;58.20
44729;DHT22;30457;53.590;9.922;2023-12-04T19:22:36;4.50;58.30
44729;DHT22;30457;53.590;9.922;2023-12-04T19:27:02;4.40;58.10
44729;DHT22;30457;53.590;9.922;2023-12-04T19:31:28;4.40;58.00
44729;DHT22;30457;53.590;9.922;2023-12-04T19:35:54;4.40;58.00
44729;DHT22;30457;53.590;9.922;2023-12-04T19:40:19;4.40;58.00
44729;DHT22;30457;53.590;9.922;2023-12-04T19:44:45;4.40;58.00
44729;DHT22;30457;53.590;9.922;2023-12-04T19:49:10;4.40;58.00
44729;DHT22;30457;53.590;9.922;2023-12-04T19:53:38;4.40;58.00
44729;DHT22;30457;53.590;9.922;2023-12-04T19:58:04;4.30;57.90
44729;DHT22;30457;53.590;9.922;2023-12-04T20:02:31;4.30;57.80
44729;DHT22;30457;53.590;9.922;2023-12-04T20:06:58;4.30;57.90
44729;DHT22;30457;53.590;9.922;2023-12-04T20:11:23;4.30;57.90
44729;DHT22;30457;53.590;9.922;2023-12-04T20:15:49;4.30;58.00
44729;DHT22;30457;53.590;9.922;2023-12-04T20:20:17;4.20;57.90
44729;DHT22;30457;53.590;9.922;2023-12-04T20:24:44;4.20;57.90
44729;DHT22;30457;53.590;9.922;2023-12-04T20:29:11;4.20;58.00
44729;DHT22;30457;53.590;9.922;2023-12-04T20:33:37;4.20;58.00
44729;DHT22;30457;53.590;9.922;2023-12-04T20:38:02;4.10;58.00
44729;DHT22;30457;53.590;9.922;2023-12-04T20:42:28;4.10;58.10
44729;DHT22;30457;53.590;9.922;2023-12-04T20:46:53;4.10;58.20
44729;DHT22;30457;53.590;9.922;2023-12-04T20:51:19;4.10;58.30
44729;DHT22;30457;53.590;9.922;2023-12-04T20:55:45;4.10;58.40
44729;DHT22;30457;53.590;9.922;2023-12-04T21:00:12;4.10;58.50
44729;DHT22;30457;53.590;9.922;2023-12-04T21:04:37;4.10;58.40
44729;DHT22;30457;53.590;9.922;2023-12-04T21:09:03;4.10;58.50
44729;DHT22;30457;53.590;9.922;2023-12-04T21:13:30;4.10;58.40
44729;DHT22;30457;53.590;9.922;2023-12-04T21:17:55;4.10;58.50
44729;DHT22;30457;53.590;9.922;2023-12-04T21:22:21;4.10;58.50
44729;DHT22;30457;53.590;9.922;2023-12-04T21:26:46;4.10;58.40
44729;DHT22;30457;53.590;9.922;2023-12-04T21:31:12;4.10;58.40
44729;DHT22;30457;53.590;9.922;2023-12-04T21:35:38;4.10;58.30
44729;DHT22;30457;53.590;9.922;2023-12-04T21:40:04;4.10;58.30
44729;DHT22;30457;53.590;9.922;2023-12-04T21:44:29;4.10;58.40
44729;DHT22;30457;53.590;9.922;2023-12-04T21:48:55;4.00;58.30
44729;DHT22;30457;53.590;9.922;2023-12-04T21:53:21;4.00;58.30
44729;DHT22;30457;53.590;9.922;2023-12-04T21:57:47;4.00;58.40
44729;DHT22;30457;53.590;9.922;2023-12-04T22:02:12;4.00;58.40
44729;DHT22;30457;53.590;9.922;2023-12-04T22:06:38;4.00;58.50
44729;DHT22;30457;53.590;9.922;2023-12-04T22:11:04;3.90;58.50
44729;DHT22;30457;53.590;9.922;2023-12-04T22:15:29;3.90;58.50
44729;DHT22;30457;53.590;9.922;2023-12-04T22:19:55;3.90;58.40
44729;DHT22;30457;53.590;9.922;2023-12-04T22:24:20;3.90;58.50
44729;DHT22;30457;53.590;9.922;2023-12-04T22:28:46;3.90;58.60
44729;DHT22;30457;53.590;9.922;2023-12-04T22:33:11;3.90;58.50
44729;DHT22;30457;53.590;9.922;2023-12-04T22:37:37;3.90;58.40
44729;DHT22;30457;53.590;9.922;2023-12-04T22:42:03;3.90;59.00
44729;DHT22;30457;53.590;9.922;2023-12-04T22:46:29;3.80;58.40
44729;DHT22;30457;53.590;9.922;2023-12-04T22:50:54;3.80;58.40
44729;DHT22;30457;53.590;9.922;2023-12-04T22:55:20;3.80;58.40
44729;DHT22;30457;53.590;9.922;2023-12-04T22:59:45;3.80;58.40
44729;DHT22;30457;53.590;9.922;2023-12-04T23:04:11;3.80;58.40
44729;DHT22;30457;53.590;9.922;2023-12-04T23:08:36;3.70;58.30
44729;DHT22;30457;53.590;9.922;2023-12-04T23:13:02;3.70;58.40
44729;DHT22;30457;53.590;9.922;2023-12-04T23:17:28;3.70;58.40
44729;DHT22;30457;53.590;9.922;2023-12-04T23:21:54;3.70;58.40
44729;DHT22;30457;53.590;9.922;2023-12-04T23:26:19;3.70;58.40
44729;DHT22;30457;53.590;9.922;2023-12-04T23:30:45;3.70;58.30
44729;DHT22;30457;53.590;9.922;2023-12-04T23:35:10;3.60;58.40
44729;DHT22;30457;53.590;9.922;2023-12-04T23:39:36;3.60;58.30
44729;DHT22;30457;53.590;9.922;2023-12-04T23:44:02;3.60;58.40
44729;DHT22;30457;53.590;9.922;2023-12-04T23:48:27;3.60;58.30
44729;DHT22;30457;53.590;9.922;2023-12-04T23:52:53;3.60;58.40
44729;DHT22;30457;53.590;9.922;2023-12-04T23:57:18;3.60;58.40
